createdAt,value
2017-07-10T00:00:29.226Z,95.50
2017-07-10T00:02:57.670Z,94.50
2017-07-10T00:05:26.829Z,95.30
2017-07-10T00:07:55.236Z,95.30
2017-07-10T00:10:24.467Z,96.10
2017-07-10T00:12:52.867Z,96.10
2017-07-10T00:15:21.270Z,96.30
2017-07-10T00:17:49.695Z,95.90
2017-07-10T00:20:18.095Z,96.10
2017-07-10T00:22:46.128Z,96.50
2017-07-10T00:25:15.447Z,95.90
2017-07-10T00:27:43.847Z,95.80
2017-07-10T00:30:12.238Z,96.70
2017-07-10T00:32:40.954Z,96.70
2017-07-10T00:35:10.115Z,97.80
2017-07-10T00:37:38.511Z,97.80
2017-07-10T00:40:06.924Z,97.50
2017-07-10T00:42:35.340Z,98.40
2017-07-10T00:45:03.738Z,98.60
2017-07-10T00:47:32.297Z,98.70
2017-07-10T00:50:00.677Z,98.60
2017-07-10T00:52:29.076Z,99.40
2017-07-10T00:54:57.485Z,99.90
2017-07-10T00:57:26.636Z,99.70
2017-07-10T00:59:55.098Z,99.70
2017-07-10T01:02:23.029Z,99.80
2017-07-10T01:04:52.180Z,99.90
2017-07-10T01:07:20.581Z,99.90
2017-07-10T01:09:50.043Z,99.90
2017-07-10T01:12:18.469Z,99.90
2017-07-10T01:14:46.879Z,99.90
2017-07-10T01:17:15.448Z,99.90
2017-07-10T01:19:44.602Z,99.90
2017-07-10T01:22:13.014Z,99.90
2017-07-10T01:24:41.843Z,99.90
2017-07-10T01:27:10.221Z,99.90
2017-07-10T01:29:38.617Z,99.90
2017-07-10T01:32:07.143Z,99.90
2017-07-10T01:34:36.302Z,99.90
2017-07-10T01:37:04.693Z,99.90
2017-07-10T01:39:33.320Z,99.90
2017-07-10T01:42:01.694Z,99.90
2017-07-10T01:44:30.085Z,99.90
2017-07-10T01:46:58.871Z,99.90
2017-07-10T01:49:27.255Z,99.90
2017-07-10T01:51:54.953Z,99.90
2017-07-10T01:54:23.355Z,99.90
2017-07-10T01:56:52.525Z,99.90
2017-07-10T01:59:20.924Z,99.90
2017-07-10T02:01:49.424Z,99.90
2017-07-10T02:04:18.579Z,99.90
2017-07-10T02:06:46.978Z,99.90
2017-07-10T02:09:16.349Z,99.90
2017-07-10T02:11:44.735Z,99.90
2017-07-10T02:14:13.134Z,99.90
2017-07-10T02:16:41.884Z,99.90
2017-07-10T02:19:10.280Z,99.90
2017-07-10T02:21:38.669Z,99.90
2017-07-10T02:24:07.797Z,99.90
2017-07-10T02:26:36.229Z,99.90
2017-07-10T02:29:04.634Z,99.90
2017-07-10T02:31:33.245Z,99.90
2017-07-10T02:34:01.638Z,99.90
2017-07-10T02:36:30.069Z,99.90
2017-07-10T02:38:58.624Z,99.90
2017-07-10T02:41:27.062Z,99.90
2017-07-10T02:43:55.518Z,99.90
2017-07-10T02:46:24.746Z,99.90
2017-07-10T02:48:53.158Z,99.90
2017-07-10T02:51:21.585Z,99.90
2017-07-10T02:53:50.064Z,99.90
2017-07-10T02:56:19.767Z,99.90
2017-07-10T02:58:48.920Z,99.90
2017-07-10T03:01:18.142Z,99.90
2017-07-10T03:03:46.535Z,99.90
2017-07-10T03:06:14.925Z,99.90
2017-07-10T03:08:44.097Z,99.90
2017-07-10T03:11:12.485Z,99.90
2017-07-10T03:13:41.654Z,99.90
2017-07-10T03:16:10.285Z,99.90
2017-07-10T03:18:39.437Z,99.90
2017-07-10T03:21:07.843Z,99.90
2017-07-10T03:23:37.070Z,99.90
2017-07-10T03:26:05.462Z,99.90
2017-07-10T03:28:33.875Z,99.90
2017-07-10T03:31:02.503Z,99.90
2017-07-10T03:33:30.897Z,99.90
2017-07-10T03:35:59.286Z,99.90
2017-07-10T03:38:27.710Z,99.90
2017-07-10T03:40:56.910Z,99.90
2017-07-10T03:43:25.309Z,99.90
2017-07-10T03:45:53.804Z,99.90
2017-07-10T03:48:22.194Z,99.90
2017-07-10T03:50:50.582Z,99.90
2017-07-10T03:53:19.035Z,99.90
2017-07-10T03:55:47.422Z,99.90
2017-07-10T03:58:15.812Z,99.90
2017-07-10T04:00:44.667Z,99.90
2017-07-10T04:03:13.814Z,99.90
2017-07-10T04:05:42.213Z,99.90
2017-07-10T04:08:10.658Z,99.90
2017-07-10T04:10:39.051Z,99.90
2017-07-10T04:13:07.469Z,99.90
2017-07-10T04:15:36.878Z,99.90
2017-07-10T04:18:05.731Z,99.90
2017-07-10T04:20:34.122Z,99.90
2017-07-10T04:23:02.525Z,99.90
2017-07-10T04:25:30.918Z,99.90
2017-07-10T04:27:59.338Z,99.90
2017-07-10T04:30:28.371Z,99.90
2017-07-10T04:32:56.758Z,99.90
2017-07-10T04:35:25.148Z,99.90
2017-07-10T04:37:53.940Z,99.90
2017-07-10T04:40:22.343Z,99.90
2017-07-10T04:42:50.751Z,99.90
2017-07-10T04:45:19.214Z,99.90
2017-07-10T04:47:47.620Z,99.90
2017-07-10T04:50:16.774Z,99.90
2017-07-10T04:52:45.407Z,99.90
2017-07-10T04:55:14.574Z,99.90
2017-07-10T04:57:42.813Z,99.90
2017-07-10T05:00:11.235Z,99.90
2017-07-10T05:02:39.663Z,99.90
2017-07-10T05:05:07.389Z,99.90
2017-07-10T05:07:36.807Z,99.90
2017-07-10T05:10:05.976Z,99.90
2017-07-10T05:12:34.378Z,99.90
2017-07-10T05:15:03.653Z,99.90
2017-07-10T05:17:32.050Z,99.90
2017-07-10T05:20:01.206Z,99.90
2017-07-10T05:22:29.634Z,99.90
2017-07-10T05:24:58.053Z,99.90
2017-07-10T05:27:26.474Z,99.90
2017-07-10T05:29:55.696Z,99.90
2017-07-10T05:32:24.077Z,99.90
2017-07-10T05:34:52.075Z,99.90
2017-07-10T05:37:20.630Z,99.90
2017-07-10T05:39:49.030Z,99.90
2017-07-10T05:42:17.424Z,99.90
2017-07-10T05:44:46.143Z,99.90
2017-07-10T05:47:15.299Z,99.90
2017-07-10T05:49:43.702Z,99.90
2017-07-10T05:52:12.317Z,99.90
2017-07-10T05:54:40.690Z,99.90
2017-07-10T05:57:09.845Z,99.90
2017-07-10T05:59:38.459Z,99.90
2017-07-10T06:02:07.629Z,99.90
2017-07-10T06:04:36.049Z,99.90
2017-07-10T06:07:04.764Z,99.90
2017-07-10T06:09:33.164Z,99.90
2017-07-10T06:12:02.220Z,99.90
2017-07-10T06:14:30.777Z,99.90
2017-07-10T06:16:59.946Z,99.90
2017-07-10T06:19:28.362Z,99.90
2017-07-10T06:21:57.147Z,99.90
2017-07-10T06:24:25.248Z,99.90
2017-07-10T06:26:53.624Z,99.90
2017-07-10T06:29:22.057Z,99.90
2017-07-10T06:31:50.442Z,99.90
2017-07-10T06:34:19.597Z,99.90
2017-07-10T06:36:48.129Z,99.90
2017-07-10T06:39:17.272Z,99.90
2017-07-10T06:41:45.677Z,99.90
2017-07-10T06:44:14.199Z,99.90
2017-07-10T06:46:42.618Z,99.90
2017-07-10T06:49:10.827Z,99.80
2017-07-10T06:51:40.358Z,99.60
2017-07-10T06:54:08.757Z,99.60
2017-07-10T06:56:37.135Z,98.80
2017-07-10T06:59:05.811Z,99.10
2017-07-10T07:01:34.204Z,99.20
2017-07-10T07:04:02.604Z,98.20
2017-07-10T07:06:31.014Z,99.00
2017-07-10T07:09:00.254Z,99.10
2017-07-10T07:11:28.676Z,99.20
2017-07-10T07:13:57.171Z,99.40
2017-07-10T07:16:26.341Z,98.80
2017-07-10T07:18:54.746Z,98.80
2017-07-10T07:21:24.313Z,98.10
2017-07-10T07:23:52.706Z,98.10
2017-07-10T07:26:21.105Z,98.70
2017-07-10T07:28:50.430Z,96.00
2017-07-10T07:31:18.844Z,96.00
2017-07-10T07:33:47.278Z,96.60
2017-07-10T07:36:15.841Z,96.10
2017-07-10T07:38:45.006Z,95.30
2017-07-10T07:41:13.431Z,95.30
2017-07-10T07:43:42.320Z,94.80
2017-07-10T07:46:10.716Z,95.40
2017-07-10T07:48:39.133Z,95.20
2017-07-10T07:51:07.389Z,94.40
2017-07-10T07:53:35.792Z,93.50
2017-07-10T07:56:04.181Z,94.20
2017-07-10T07:58:33.000Z,93.70
2017-07-10T08:01:01.048Z,94.00
2017-07-10T08:03:30.203Z,94.10
2017-07-10T08:05:58.668Z,94.10
2017-07-10T08:08:27.081Z,95.00
2017-07-10T08:10:55.505Z,94.70
2017-07-10T08:13:24.013Z,94.70
2017-07-10T08:15:52.447Z,94.60
2017-07-10T08:18:20.827Z,94.00
2017-07-10T08:20:50.272Z,95.30
2017-07-10T08:23:19.455Z,95.30
2017-07-10T08:25:47.920Z,95.80
2017-07-10T08:28:16.598Z,95.60
2017-07-10T08:30:44.988Z,95.00
2017-07-10T08:33:13.198Z,94.80
2017-07-10T08:35:41.541Z,94.20
2017-07-10T08:38:09.940Z,94.00
2017-07-10T08:40:38.331Z,93.90
2017-07-10T08:43:06.733Z,93.70
2017-07-10T08:45:35.138Z,93.80
2017-07-10T08:48:03.549Z,94.30
2017-07-10T08:50:32.281Z,93.50
2017-07-10T08:53:00.889Z,92.90
2017-07-10T08:55:32.314Z,92.70
2017-07-10T08:58:00.808Z,92.50
2017-07-10T09:00:29.992Z,91.60
2017-07-10T09:02:58.381Z,91.60
2017-07-10T09:05:27.597Z,91.60
2017-07-10T09:07:56.001Z,91.60
2017-07-10T09:10:24.408Z,91.80
2017-07-10T09:12:53.033Z,92.60
2017-07-10T09:15:21.436Z,92.80
2017-07-10T09:17:49.827Z,92.70
2017-07-10T09:20:18.439Z,92.60
2017-07-10T09:22:46.824Z,92.40
2017-07-10T09:25:15.023Z,91.90
2017-07-10T09:27:43.469Z,92.10
2017-07-10T09:30:11.882Z,92.50
2017-07-10T09:32:40.262Z,91.90
2017-07-10T09:35:08.801Z,92.60
2017-07-10T09:37:37.189Z,92.40
2017-07-10T09:40:05.563Z,92.20
2017-07-10T09:42:34.781Z,91.80
2017-07-10T09:45:03.949Z,91.60
2017-07-10T09:47:32.335Z,91.50
2017-07-10T09:50:00.854Z,90.70
2017-07-10T09:52:29.232Z,89.60
2017-07-10T09:54:57.621Z,90.30
2017-07-10T09:57:26.290Z,90.40
2017-07-10T09:59:54.686Z,90.20
2017-07-10T10:02:23.069Z,90.20
2017-07-10T10:04:52.373Z,89.70
2017-07-10T10:07:20.767Z,89.60
2017-07-10T10:09:49.165Z,90.50
2017-07-10T10:12:17.603Z,91.50
2017-07-10T10:14:46.001Z,90.70
2017-07-10T10:17:14.390Z,89.70
2017-07-10T10:19:42.901Z,87.20
2017-07-10T10:22:11.296Z,87.80
2017-07-10T10:24:39.701Z,88.40
2017-07-10T10:27:08.200Z,89.40
2017-07-10T10:29:36.681Z,89.40
2017-07-10T10:32:05.078Z,88.50
2017-07-10T10:34:33.653Z,89.30
2017-07-10T10:37:02.038Z,87.10
2017-07-10T10:39:30.434Z,85.10
2017-07-10T10:41:58.982Z,83.80
2017-07-10T10:44:27.420Z,83.80
2017-07-10T10:46:55.805Z,82.10
2017-07-10T10:49:24.243Z,81.00
2017-07-10T10:51:52.629Z,81.30
2017-07-10T10:54:21.788Z,78.80
2017-07-10T10:56:50.297Z,78.80
2017-07-10T10:59:19.287Z,80.20
2017-07-10T11:01:47.677Z,80.30
2017-07-10T11:04:17.884Z,77.80
2017-07-10T11:06:46.257Z,77.90
2017-07-10T11:09:14.655Z,76.10
2017-07-10T11:11:43.870Z,77.00
2017-07-10T11:14:12.296Z,76.90
2017-07-10T11:16:40.708Z,77.60
2017-07-10T11:19:10.138Z,80.00
2017-07-10T11:21:38.527Z,80.00
2017-07-10T11:24:06.921Z,80.30
2017-07-10T11:26:35.354Z,80.10
2017-07-10T11:29:03.750Z,81.10
2017-07-10T11:31:32.158Z,75.10
2017-07-10T11:34:00.669Z,74.70
2017-07-10T11:36:29.069Z,78.00
2017-07-10T11:38:57.551Z,71.40
2017-07-10T11:41:26.680Z,67.80
2017-07-10T11:43:55.098Z,67.70
2017-07-10T11:46:23.501Z,67.60
2017-07-10T11:48:53.348Z,65.40
2017-07-10T11:51:21.746Z,65.30
2017-07-10T11:53:50.125Z,68.10
2017-07-10T11:56:18.638Z,69.30
2017-07-10T11:58:47.821Z,71.40
2017-07-10T12:01:16.219Z,71.50
2017-07-10T12:03:45.469Z,75.40
2017-07-10T12:06:14.311Z,75.20
2017-07-10T12:08:43.833Z,74.50
2017-07-10T12:11:12.027Z,74.10
2017-07-10T12:13:40.423Z,75.10
2017-07-10T12:16:08.825Z,75.30
2017-07-10T12:18:37.275Z,76.00
2017-07-10T12:21:05.674Z,77.70
2017-07-10T12:23:34.062Z,78.30
2017-07-10T12:26:02.457Z,74.60
2017-07-10T12:28:31.616Z,73.80
2017-07-10T12:31:00.242Z,73.80
2017-07-10T12:33:29.392Z,75.40
2017-07-10T12:35:57.765Z,75.30
2017-07-10T12:38:26.170Z,74.60
2017-07-10T12:40:54.565Z,74.50
2017-07-10T12:43:24.073Z,72.10
2017-07-10T12:45:53.287Z,71.30
2017-07-10T12:48:21.684Z,71.30
2017-07-10T12:50:50.082Z,70.50
2017-07-10T12:53:18.465Z,71.20
2017-07-10T12:55:47.565Z,67.20
2017-07-10T13:01:10.822Z,67.00
2017-07-10T13:03:40.013Z,64.20
2017-07-10T13:06:09.172Z,66.80
2017-07-10T13:08:37.559Z,66.80
2017-07-10T13:11:05.949Z,67.90
2017-07-10T13:13:34.939Z,71.10
2017-07-10T13:16:03.325Z,79.70
2017-07-10T13:18:31.729Z,87.60
2017-07-10T13:21:00.133Z,91.50
2017-07-10T13:23:28.544Z,93.40
2017-07-10T13:25:57.195Z,95.30
2017-07-10T13:28:25.580Z,96.40
2017-07-10T13:30:53.971Z,96.40
2017-07-10T13:33:22.365Z,96.60
2017-07-10T13:35:50.743Z,97.50
2017-07-10T13:38:19.354Z,98.20
2017-07-10T13:40:47.768Z,98.10
2017-07-10T13:43:16.163Z,98.70
2017-07-10T13:45:44.591Z,98.20
2017-07-10T13:48:13.761Z,97.90
2017-07-10T13:50:42.186Z,98.20
2017-07-10T13:53:10.573Z,98.40
2017-07-10T13:55:38.963Z,97.80
2017-07-10T13:58:07.363Z,97.60
2017-07-10T14:00:35.745Z,97.10
2017-07-10T14:03:04.238Z,96.50
2017-07-10T14:05:32.636Z,97.00
2017-07-10T14:08:01.810Z,96.60
2017-07-10T14:10:30.225Z,96.60
2017-07-10T14:12:58.614Z,96.70
2017-07-10T14:15:27.294Z,97.50
2017-07-10T14:17:55.667Z,97.40
2017-07-10T14:20:24.059Z,97.10
2017-07-10T14:22:52.455Z,97.30
2017-07-10T14:25:20.849Z,97.30
2017-07-10T14:27:49.571Z,97.60
2017-07-10T14:30:17.953Z,97.60
2017-07-10T14:32:46.342Z,97.30
2017-07-10T14:35:14.766Z,97.70
2017-07-10T14:37:43.206Z,97.60
2017-07-10T14:40:11.860Z,97.40
2017-07-10T14:42:41.039Z,97.30
2017-07-10T14:45:09.430Z,97.40
2017-07-10T14:47:38.615Z,98.00
2017-07-10T14:50:07.009Z,98.00
2017-07-10T14:52:36.225Z,96.70
2017-07-10T14:55:04.637Z,96.70
2017-07-10T14:57:33.086Z,97.30
2017-07-10T15:00:01.481Z,97.40
2017-07-10T15:02:29.863Z,97.40
2017-07-10T15:04:58.518Z,97.70
2017-07-10T15:07:27.685Z,97.50
2017-07-10T15:09:56.088Z,97.50
2017-07-10T15:12:25.317Z,97.90
2017-07-10T15:14:53.883Z,98.20
2017-07-10T15:17:22.667Z,97.80
2017-07-10T15:19:51.073Z,98.20
2017-07-10T15:22:19.485Z,97.00
2017-07-10T15:24:47.893Z,97.00
2017-07-10T15:27:16.313Z,97.00
2017-07-10T15:29:44.957Z,97.20
2017-07-10T15:32:13.371Z,96.90
2017-07-10T15:34:41.765Z,96.80
2017-07-10T15:37:10.154Z,97.00
2017-07-10T15:39:38.529Z,96.50
2017-07-10T15:42:07.152Z,95.70
2017-07-10T15:44:35.532Z,95.10
2017-07-10T15:47:03.922Z,95.70
2017-07-10T15:49:32.334Z,95.40
2017-07-10T15:52:00.729Z,95.40
2017-07-10T15:54:29.355Z,95.40
2017-07-10T15:56:57.732Z,95.80
2017-07-10T15:59:26.121Z,95.10
2017-07-10T16:01:54.528Z,94.30
2017-07-10T16:04:22.915Z,93.80
2017-07-10T16:06:51.469Z,93.40
2017-07-10T16:09:19.852Z,92.60
2017-07-10T16:11:48.262Z,91.50
2017-07-10T16:14:16.667Z,91.90
2017-07-10T16:16:45.050Z,92.20
2017-07-10T16:19:13.619Z,92.00
2017-07-10T16:21:42.613Z,91.80
2017-07-10T16:24:11.763Z,92.80
2017-07-10T16:26:40.172Z,92.80
2017-07-10T16:29:08.560Z,92.30
2017-07-10T16:31:37.657Z,91.60
2017-07-10T16:34:06.823Z,91.00
2017-07-10T16:36:35.222Z,90.90
2017-07-10T16:39:03.273Z,91.10
2017-07-10T16:41:31.662Z,90.50
2017-07-10T16:44:00.289Z,91.00
2017-07-10T16:46:28.694Z,90.70
2017-07-10T16:48:57.098Z,91.30
2017-07-10T16:51:25.491Z,91.10
2017-07-10T16:53:53.875Z,90.80
2017-07-10T16:56:23.130Z,91.30
2017-07-10T16:58:51.603Z,90.90
2017-07-10T17:01:19.999Z,90.50
2017-07-10T17:03:48.392Z,90.60
2017-07-10T17:06:16.803Z,90.40
2017-07-10T17:08:45.499Z,88.80
2017-07-10T17:11:13.874Z,89.60
2017-07-10T17:13:42.265Z,90.10
2017-07-10T17:16:10.653Z,90.40
2017-07-10T17:18:39.036Z,90.20
2017-07-10T17:21:07.666Z,90.00
2017-07-10T17:23:36.060Z,90.30
2017-07-10T17:26:04.449Z,90.90
2017-07-10T17:28:32.854Z,89.60
2017-07-10T17:31:01.237Z,90.20
2017-07-10T17:33:29.681Z,90.70
2017-07-10T17:35:58.069Z,91.00
2017-07-10T17:38:26.569Z,90.50
2017-07-10T17:40:54.967Z,90.90
2017-07-10T17:43:23.354Z,90.80
2017-07-10T17:45:51.967Z,90.50
2017-07-10T17:48:20.359Z,90.30
2017-07-10T17:50:48.745Z,90.20
2017-07-10T17:53:17.135Z,90.80
2017-07-10T17:55:45.508Z,90.70
2017-07-10T17:58:14.192Z,90.20
2017-07-10T18:00:42.632Z,90.10
2017-07-10T18:03:11.810Z,90.60
2017-07-10T18:05:40.989Z,90.00
2017-07-10T18:08:09.391Z,90.20
2017-07-10T18:10:37.999Z,90.40
2017-07-10T18:13:06.453Z,89.80
2017-07-10T18:15:34.845Z,90.80
2017-07-10T18:18:04.010Z,90.80
2017-07-10T18:20:32.400Z,90.70
2017-07-10T18:23:00.986Z,90.40
2017-07-10T18:25:29.383Z,91.00
2017-07-10T18:27:57.817Z,90.70
2017-07-10T18:30:26.286Z,91.00
2017-07-10T18:32:54.731Z,91.30
2017-07-10T18:35:23.276Z,91.10
2017-07-10T18:37:51.659Z,91.40
2017-07-10T18:40:20.037Z,91.70
2017-07-10T18:42:48.441Z,91.40
2017-07-10T18:45:17.601Z,91.40
2017-07-10T18:47:46.295Z,91.40
2017-07-10T18:50:14.684Z,91.20
2017-07-10T18:52:43.094Z,91.30
2017-07-10T18:55:11.568Z,91.30
2017-07-10T18:57:40.032Z,91.60
2017-07-10T19:00:08.919Z,91.60
2017-07-10T19:02:37.325Z,91.40
2017-07-10T19:05:05.714Z,91.30
2017-07-10T19:07:34.114Z,91.20
2017-07-10T19:10:02.193Z,91.20
2017-07-10T19:12:30.751Z,91.20
2017-07-10T19:14:59.138Z,91.20
2017-07-10T19:17:27.521Z,91.30
2017-07-10T19:19:55.962Z,91.70
2017-07-10T19:22:24.399Z,91.90
2017-07-10T19:24:52.831Z,92.00
2017-07-10T19:27:21.207Z,92.00
2017-07-10T19:29:49.620Z,92.20
2017-07-10T19:32:18.023Z,92.30
2017-07-10T19:34:46.433Z,92.60
2017-07-10T19:37:16.656Z,92.70
2017-07-10T19:39:45.041Z,92.90
2017-07-10T19:42:13.449Z,93.00
2017-07-10T19:44:41.846Z,93.00
2017-07-10T19:47:10.249Z,93.20
2017-07-10T19:49:40.505Z,93.40
2017-07-10T19:52:08.897Z,93.40
2017-07-10T19:54:37.318Z,93.50
2017-07-10T19:57:05.734Z,93.70
2017-07-10T19:59:34.128Z,93.90
2017-07-10T20:02:02.782Z,94.00
2017-07-10T20:04:31.173Z,94.10
2017-07-10T20:06:59.579Z,94.30
2017-07-10T20:09:27.980Z,94.40
2017-07-10T20:11:56.381Z,94.80
2017-07-10T20:14:25.070Z,95.30
2017-07-10T20:16:54.801Z,95.80
2017-07-10T20:19:23.214Z,95.80
2017-07-10T20:21:51.648Z,96.10
2017-07-10T20:24:20.788Z,96.80
2017-07-10T20:26:49.333Z,96.80
2017-07-10T20:29:17.710Z,97.10
2017-07-10T20:31:46.092Z,97.30
2017-07-10T20:34:14.511Z,97.50
2017-07-10T20:36:42.890Z,97.70
2017-07-10T20:39:11.514Z,97.90
2017-07-10T20:41:40.672Z,98.10
2017-07-10T20:44:09.059Z,98.10
2017-07-10T20:46:37.486Z,98.10
2017-07-10T20:49:05.904Z,98.10
2017-07-10T20:51:34.546Z,98.30
2017-07-10T20:54:02.936Z,98.30
2017-07-10T20:56:31.320Z,98.30
2017-07-10T20:58:59.714Z,98.30
2017-07-10T21:01:28.097Z,98.30
2017-07-10T21:03:56.703Z,98.40
2017-07-10T21:06:25.197Z,98.40
2017-07-10T21:08:53.601Z,98.40
2017-07-10T21:11:22.020Z,98.50
2017-07-10T21:13:50.445Z,98.60
2017-07-10T21:16:20.123Z,98.50
2017-07-10T21:18:48.526Z,98.50
2017-07-10T21:21:17.689Z,98.60
2017-07-10T21:23:46.111Z,98.60
2017-07-10T21:26:14.743Z,98.80
2017-07-10T21:28:43.372Z,98.90
2017-07-10T21:31:12.528Z,98.80
2017-07-10T21:33:40.915Z,98.80
2017-07-10T21:36:09.306Z,98.90
2017-07-10T21:38:38.490Z,98.80
2017-07-10T21:41:07.108Z,98.90
2017-07-10T21:43:36.278Z,99.00
2017-07-10T21:46:04.659Z,99.00
2017-07-10T21:48:33.078Z,98.90
2017-07-10T21:51:01.573Z,99.00
2017-07-10T21:53:30.210Z,99.00
2017-07-10T21:55:58.580Z,99.10
2017-07-10T21:58:26.980Z,99.40
2017-07-10T22:00:56.139Z,99.60
2017-07-10T22:03:24.516Z,99.50
2017-07-10T22:05:53.818Z,99.60
2017-07-10T22:08:22.204Z,99.70
2017-07-10T22:10:50.583Z,99.70
2017-07-10T22:13:18.966Z,99.80
2017-07-10T22:15:47.345Z,99.80
2017-07-10T22:18:15.781Z,99.90
2017-07-10T22:20:44.156Z,99.90
2017-07-10T22:23:12.196Z,99.90
2017-07-10T22:25:41.370Z,99.90
2017-07-10T22:28:10.537Z,99.90
2017-07-10T22:30:39.064Z,99.90
2017-07-10T22:33:07.485Z,99.90
2017-07-10T22:35:35.198Z,99.90
2017-07-10T22:38:04.679Z,99.90
2017-07-10T22:40:33.068Z,99.90
2017-07-10T22:43:01.579Z,99.90
2017-07-10T22:45:29.968Z,99.90
2017-07-10T22:47:58.357Z,99.90
2017-07-10T22:50:26.784Z,99.90
2017-07-10T22:52:55.988Z,99.90
2017-07-10T22:55:24.784Z,99.90
2017-07-10T22:57:53.956Z,99.90
2017-07-10T23:00:22.337Z,99.90
2017-07-10T23:02:50.742Z,99.90
2017-07-10T23:05:19.411Z,99.90
2017-07-10T23:07:49.190Z,99.90
2017-07-10T23:10:17.641Z,99.90
2017-07-10T23:12:46.161Z,99.90
2017-07-10T23:15:15.362Z,99.90
2017-07-10T23:17:43.741Z,99.90
2017-07-10T23:20:12.451Z,99.90
2017-07-10T23:22:41.590Z,99.90
2017-07-10T23:25:09.984Z,99.90
2017-07-10T23:27:38.543Z,99.90
2017-07-10T23:30:06.928Z,99.90
2017-07-10T23:32:35.573Z,99.90
2017-07-10T23:35:03.945Z,99.90
2017-07-10T23:37:33.115Z,99.90
2017-07-10T23:40:01.560Z,99.90
2017-07-10T23:42:29.954Z,99.90
2017-07-10T23:44:58.525Z,99.90
2017-07-10T23:47:26.898Z,99.90
2017-07-10T23:49:55.287Z,99.90
2017-07-10T23:52:23.676Z,99.90
2017-07-10T23:54:52.064Z,99.90
2017-07-10T23:57:20.676Z,99.90
2017-07-10T23:59:49.833Z,99.90
